Tyndall Air Force Base Panama City US
ICAO: KPAM
IATA: PAM
Category: Large
Scheduled Services: No

Elevation: 17 ft
TransAlt. 18000 ft.

Airport Communications:
APP/DEP:119.1
ATIS:25.44
CLNC DEL:118.05
GND:121.9
PMSV METRO:29.062
COMD POST:38.13
PTD:139.9
TWR:133.95

KPAM Zoom In..

If you have problems with the map follow the link
https://www.worldairports.se/pages/airport.php?
ICAO=KPAM

Runways:

(A) RW 13L length 10004 ft width 200 ft
ILS 111.50 / hdg 135

(B) RW 13R length 9135 ft width 150 ft
---- / hdg 135

(C) RW 31L length 9135 ft width 150 ft
---- / hdg 315

(D) RW 31R length 10004 ft width 200 ft
ILS 110.10 / hdg 315

Location; KPAM
Day. 11 / Time. 13.14 Zulu
* Altimeter: 30.29
* Temperature: 10° c. 50°f.
* Wind from: 030° Speed 15 kn with Gusts up to 20 kn.
Dewpoint: 05° c.
Visibility: 10 Statute Miles.
Clouds: Few 5500 ft.
Clouds: Overcast 9000 ft.
Conditions: Light Rain.

KPAM 111314Z AUTO 03015G20KT 10SM -RA FEW055 OVC090 10/05 A3029 RMK AO2 RAE02RAB14 SLP260 $


Wind From 030°
Speed 15 kn.

 
 
jpsmedia worldairports.se 2019   terms of use